Time;durP1;ratioP1;P1;durP2;ratioP2;P2;SDS_P1;SDS_P2;PMS_P1;PMS_P2;Temp;Humidity;BMP_temperature;BMP_pressure;BME280_temperature;BME280_humidity;BME280_pressure;Samples;Min_cycle;Max_cycle;Signal;HPM_P1;HPM_P2
2022/04/11 00:03:32;;;;;;;39.90;23.30;;;;;;;4.60;58.84;99188.13;233312;1217;139266;-60
2022/04/11 00:08:35;;;;;;;38.10;24.70;;;;;;;4.48;59.25;99189.06;233267;1217;139076;-60
2022/04/11 00:13:38;;;;;;;43.90;24.50;;;;;;;4.40;59.28;99192.53;233323;1217;138437;-60
2022/04/11 00:18:42;;;;;;;35.90;22.00;;;;;;;4.38;59.63;99199.80;233345;1215;138947;-58
2022/04/11 00:23:45;;;;;;;38.40;22.80;;;;;;;4.40;59.61;99202.88;233333;1217;139684;-57
2022/04/11 00:28:48;;;;;;;40.00;22.60;;;;;;;4.44;59.87;99199.91;233283;1217;138682;-59
2022/04/11 00:33:51;;;;;;;36.60;21.10;;;;;;;4.52;60.26;99198.77;233257;1217;138675;-58
2022/04/11 00:38:54;;;;;;;37.20;21.20;;;;;;;4.59;59.97;99198.38;233302;1217;138355;-60
2022/04/11 00:43:57;;;;;;;29.90;19.00;;;;;;;4.59;59.75;99199.78;233262;1217;138759;-61
2022/04/11 00:49:00;;;;;;;33.20;21.10;;;;;;;4.58;59.91;99197.34;233200;1220;139436;-61
2022/04/11 00:54:04;;;;;;;36.50;21.00;;;;;;;4.58;59.86;99197.52;233380;1217;139689;-61
2022/04/11 00:59:10;;;;;;;37.00;19.20;;;;;;;4.57;59.77;99195.30;233337;1217;138714;-63
2022/04/11 01:04:23;;;;;;;29.10;17.20;;;;;;;4.56;59.94;99201.81;233335;1217;138866;-63
2022/04/11 01:09:27;;;;;;;30.00;17.10;;;;;;;4.55;59.97;99203.77;233381;1217;138879;-63
2022/04/11 01:14:30;;;;;;;32.50;17.20;;;;;;;4.54;59.93;99200.11;233314;1217;139107;-62
2022/04/11 01:19:35;;;;;;;31.70;17.80;;;;;;;4.50;59.76;99201.48;233298;1217;139039;-61
2022/04/11 01:24:39;;;;;;;;;;;;;;;4.47;59.99;99199.99;233342;1215;139867;-60
2022/04/11 01:29:42;;;;;;;33.00;20.40;;;;;;;4.45;60.18;99201.50;233377;1217;124829;-59
2022/04/11 01:34:46;;;;;;;34.20;19.40;;;;;;;4.42;59.89;99205.61;233227;1217;139227;-60
2022/04/11 01:39:49;;;;;;;37.30;20.10;;;;;;;4.38;59.78;99212.27;233323;1217;140873;-60
2022/04/11 01:44:52;;;;;;;37.70;18.80;;;;;;;4.35;60.09;99213.95;233283;1217;139135;-61
2022/04/11 01:49:55;;;;;;;30.50;18.60;;;;;;;4.36;59.99;99218.64;233258;1217;139743;-59
2022/04/11 01:54:58;;;;;;;29.80;17.50;;;;;;;4.40;60.16;99223.97;233272;1217;138860;-59
2022/04/11 02:00:19;;;;;;;32.60;19.00;;;;;;;4.44;60.25;99226.80;233364;1217;138649;-59
2022/04/11 02:05:22;;;;;;;28.80;17.60;;;;;;;4.49;60.27;99227.16;233421;1217;138451;-60
2022/04/11 02:10:26;;;;;;;31.70;18.40;;;;;;;4.50;60.22;99229.08;233231;1217;138860;-59
2022/04/11 02:15:30;;;;;;;36.00;18.60;;;;;;;4.47;60.13;99233.55;233270;1217;138970;-62
2022/04/11 02:20:34;;;;;;;30.60;19.80;;;;;;;4.48;60.37;99233.88;233194;1217;140261;-61
2022/04/11 02:25:40;;;;;;;36.60;20.10;;;;;;;4.47;60.45;99239.34;233249;1217;138734;-59
2022/04/11 02:30:43;;;;;;;33.00;19.50;;;;;;;4.47;60.45;99244.45;233258;1217;138879;-60
2022/04/11 02:35:46;;;;;;;35.50;20.70;;;;;;;4.41;60.31;99245.89;233307;1217;138500;-61
2022/04/11 02:40:50;;;;;;;36.00;19.50;;;;;;;4.39;60.44;99252.98;233344;1217;139096;-58
2022/04/11 02:45:57;;;;;;;35.80;19.90;;;;;;;4.35;60.30;99255.59;233267;1217;138731;-61
2022/04/11 02:51:04;;;;;;;36.60;19.40;;;;;;;4.31;60.43;99253.77;233272;1217;138563;-61
2022/04/11 02:56:15;;;;;;;38.40;20.40;;;;;;;4.30;60.73;99258.02;233218;1217;138851;-58
2022/04/11 03:01:18;;;;;;;36.70;20.20;;;;;;;4.32;60.40;99264.09;233289;1217;139670;-60
2022/04/11 03:06:23;;;;;;;38.00;20.40;;;;;;;4.38;60.85;99269.35;233282;1217;139267;-61
2022/04/11 03:11:27;;;;;;;33.20;19.50;;;;;;;4.46;60.79;99269.08;233425;1217;139485;-62
2022/04/11 03:16:31;;;;;;;33.40;19.30;;;;;;;4.46;60.63;99273.84;233229;1217;138836;-62
2022/04/11 03:21:35;;;;;;;76.90;56.60;;;;;;;4.48;60.81;99277.25;233254;1217;138800;-62
2022/04/11 03:26:43;;;;;;;30.80;19.20;;;;;;;4.55;61.06;99280.73;233226;1217;138434;-59
2022/04/11 03:31:51;;;;;;;32.50;19.40;;;;;;;4.55;60.92;99282.66;233198;1217;140493;-59
2022/04/11 03:36:54;;;;;;;26.30;17.80;;;;;;;4.47;60.86;99277.30;233210;1217;139711;-60
2022/04/11 03:41:59;;;;;;;29.40;17.40;;;;;;;4.43;60.64;99275.33;233393;1217;138704;-61
2022/04/11 03:47:05;;;;;;;135.30;96.30;;;;;;;4.43;60.92;99276.38;233262;1216;138854;-60
2022/04/11 03:52:10;;;;;;;46.10;24.20;;;;;;;4.51;61.20;99280.50;233258;1219;139440;-61
2022/04/11 03:57:13;;;;;;;38.20;19.20;;;;;;;4.53;61.01;99287.28;233249;1217;138947;-60
2022/04/11 04:02:17;;;;;;;35.70;18.00;;;;;;;4.59;61.47;99295.71;233282;1217;138996;-60
2022/04/11 04:07:21;;;;;;;25.50;14.70;;;;;;;4.68;61.07;99301.55;233304;1217;138968;-59
2022/04/11 04:12:24;;;;;;;28.20;15.90;;;;;;;4.71;60.97;99304.08;233243;1217;138608;-60
2022/04/11 04:17:33;;;;;;;23.20;14.20;;;;;;;4.74;61.13;99302.73;233439;1217;138255;-59
2022/04/11 04:22:41;;;;;;;29.90;15.50;;;;;;;4.78;61.04;99304.38;232809;1217;138676;-60
2022/04/11 04:27:45;;;;;;;36.50;17.90;;;;;;;4.91;61.26;99308.49;233214;1217;138446;-61
2022/04/11 04:32:49;;;;;;;30.60;14.80;;;;;;;5.01;61.07;99307.45;233174;1217;138583;-59
2022/04/11 04:37:53;;;;;;;24.10;13.70;;;;;;;5.03;61.01;99311.94;233169;1219;138999;-58
2022/04/11 04:42:56;;;;;;;21.50;12.70;;;;;;;4.96;60.54;99314.48;233185;1217;139211;-60
2022/04/11 04:48:00;;;;;;;21.10;13.10;;;;;;;4.86;60.66;99326.23;233615;1216;138617;-61
2022/04/11 04:53:06;;;;;;;20.10;12.70;;;;;;;4.80;60.81;99338.58;233241;1217;138772;-58
2022/04/11 04:58:09;;;;;;;24.60;12.30;;;;;;;4.77;60.81;99342.39;233142;1217;138651;-58
2022/04/11 05:03:12;;;;;;;26.60;14.40;;;;;;;4.75;60.99;99347.34;233451;1217;138629;-60
2022/04/11 05:08:15;;;;;;;24.00;13.50;;;;;;;4.81;60.88;99343.46;233338;1217;138651;-60
2022/04/11 05:13:19;;;;;;;20.90;13.20;;;;;;;4.85;61.01;99341.93;233257;1217;138972;-61
2022/04/11 05:18:23;;;;;;;23.50;13.60;;;;;;;4.87;60.90;99342.56;233245;1217;139090;-59
2022/04/11 05:23:27;;;;;;;21.00;13.20;;;;;;;4.91;61.23;99351.04;233303;1217;139801;-61
2022/04/11 05:28:30;;;;;;;22.90;14.50;;;;;;;5.04;61.39;99358.30;233258;1216;139394;-59
2022/04/11 05:33:36;;;;;;;22.10;13.90;;;;;;;5.17;61.15;99370.71;233162;1217;139117;-61
2022/04/11 05:38:41;;;;;;;25.00;14.60;;;;;;;5.22;61.01;99378.45;233347;1217;138721;-60
2022/04/11 05:43:45;;;;;;;29.20;16.30;;;;;;;5.24;60.70;99380.69;233333;1217;138978;-60
2022/04/11 05:48:49;;;;;;;22.10;13.70;;;;;;;5.28;60.92;99388.64;233293;1217;138804;-60
2022/04/11 05:53:52;;;;;;;24.40;15.20;;;;;;;5.27;60.70;99394.48;233349;1219;138572;-60
2022/04/11 05:58:55;;;;;;;25.30;13.50;;;;;;;5.28;60.64;99400.93;233340;1214;138440;-60
2022/04/11 06:03:58;;;;;;;22.80;13.90;;;;;;;5.26;60.57;99403.67;233276;1217;138262;-59
2022/04/11 06:09:04;;;;;;;24.60;14.60;;;;;;;5.23;60.94;99412.21;233342;1217;140686;-59
2022/04/11 06:14:08;;;;;;;21.80;14.10;;;;;;;5.19;60.36;99414.08;233249;1218;139108;-60
2022/04/11 06:19:12;;;;;;;19.90;12.60;;;;;;;5.20;60.75;99411.92;233261;1217;139174;-60
2022/04/11 06:24:15;;;;;;;22.90;13.10;;;;;;;5.20;60.74;99416.71;233431;1217;138585;-60
2022/04/11 06:29:19;;;;;;;20.60;12.20;;;;;;;5.29;60.98;99413.41;233271;1217;138734;-61
2022/04/11 06:34:23;;;;;;;19.00;11.80;;;;;;;5.37;60.53;99399.39;233199;1219;138558;-61
2022/04/11 06:39:26;;;;;;;18.20;10.20;;;;;;;5.48;60.65;99393.02;233161;1217;138543;-64
2022/04/11 06:44:32;;;;;;;;;;;;;;;5.60;60.52;99383.78;233289;1217;138178;-59
2022/04/11 06:49:47;;;;;;;15.70;9.50;;;;;;;5.64;60.34;99385.42;233340;1217;124966;-60
2022/04/11 06:54:50;;;;;;;17.80;9.40;;;;;;;5.71;59.99;99390.27;233275;1217;138649;-59
2022/04/11 06:59:53;;;;;;;14.90;7.80;;;;;;;5.78;60.10;99393.71;233372;1217;138409;-61
2022/04/11 07:04:56;;;;;;;14.80;6.80;;;;;;;5.87;59.92;99399.54;233389;1217;138880;-61
2022/04/11 07:10:00;;;;;;;19.30;8.60;;;;;;;5.93;59.68;99406.00;233295;1217;139116;-60
2022/04/11 07:15:04;;;;;;;14.10;7.00;;;;;;;6.08;59.56;99412.69;233286;1217;138771;-60
2022/04/11 07:20:07;;;;;;;14.00;6.00;;;;;;;6.21;59.40;99412.03;233259;1217;138408;-61
2022/04/11 07:25:10;;;;;;;13.80;5.90;;;;;;;6.33;58.86;99420.21;233325;1217;138389;-60
2022/04/11 07:30:14;;;;;;;11.90;6.60;;;;;;;6.45;58.50;99427.49;233324;1217;138554;-60
2022/04/11 07:35:17;;;;;;;10.30;5.90;;;;;;;6.49;58.33;99419.05;233155;1217;140122;-60
2022/04/11 07:40:20;;;;;;;239.70;133.00;;;;;;;6.72;59.24;99420.08;233192;1217;138409;-59
2022/04/11 07:45:23;;;;;;;14.50;6.30;;;;;;;6.97;58.39;99424.54;233237;1217;139655;-59
2022/04/11 07:50:28;;;;;;;10.80;6.60;;;;;;;7.16;58.14;99415.45;233287;1217;139144;-60
2022/04/11 07:55:33;;;;;;;10.90;6.40;;;;;;;7.21;57.52;99416.48;233180;1217;138922;-58
2022/04/11 08:00:36;;;;;;;13.80;5.40;;;;;;;7.34;57.63;99412.37;233229;1217;139228;-59
2022/04/11 08:05:39;;;;;;;10.70;6.10;;;;;;;7.44;56.78;99410.39;233359;1217;138436;-58
2022/04/11 08:10:43;;;;;;;11.30;5.20;;;;;;;7.46;56.59;99415.06;233324;1217;138622;-60
2022/04/11 08:15:46;;;;;;;10.80;4.20;;;;;;;7.53;56.44;99416.30;233242;1217;140329;-60
2022/04/11 08:20:49;;;;;;;14.20;4.90;;;;;;;7.56;56.01;99415.12;233232;1217;138762;-60
2022/04/11 08:25:52;;;;;;;15.40;5.60;;;;;;;7.61;55.56;99421.46;233149;1218;139831;-60
2022/04/11 08:30:55;;;;;;;12.90;4.80;;;;;;;7.59;55.35;99410.95;233150;1217;139264;-59
2022/04/11 08:35:58;;;;;;;9.30;4.40;;;;;;;7.59;55.21;99409.55;233220;1217;138646;-59
2022/04/11 08:41:03;;;;;;;37.30;15.10;;;;;;;7.66;55.18;99419.30;233217;1217;139140;-60
2022/04/11 08:46:06;;;;;;;10.90;6.10;;;;;;;7.54;55.19;99444.34;233277;1217;139732;-59
2022/04/11 08:51:09;;;;;;;6.90;3.50;;;;;;;7.24;55.57;99445.98;233219;1217;138475;-59
2022/04/11 08:56:12;;;;;;;9.50;3.40;;;;;;;6.96;56.22;99441.70;233195;1219;138497;-60
2022/04/11 09:01:18;;;;;;;10.50;4.10;;;;;;;6.95;57.02;99432.39;233248;1218;138560;-58
2022/04/11 09:06:23;;;;;;;8.70;4.60;;;;;;;6.99;57.25;99430.60;233496;1217;138880;-61
2022/04/11 09:11:33;;;;;;;13.90;7.80;;;;;;;7.54;61.52;99420.48;233337;1217;138584;-56
2022/04/11 09:16:51;;;;;;;9.80;4.30;;;;;;;9.42;63.10;99400.10;233215;1217;138896;-60
2022/04/11 09:21:58;;;;;;;11.70;4.30;;;;;;;9.96;58.22;99396.77;233237;1217;139362;-60
2022/04/11 09:27:22;;;;;;;;;;;;;;;9.65;56.27;99403.02;233376;1217;139152;-59
2022/04/11 09:32:27;;;;;;;9.10;3.30;;;;;;;9.24;55.22;99404.05;233366;1217;125190;-59
2022/04/11 09:37:30;;;;;;;7.90;3.40;;;;;;;8.92;54.70;99401.60;233233;1219;138588;-58
2022/04/11 09:42:33;;;;;;;8.50;3.40;;;;;;;8.75;54.38;99394.10;233226;1217;138556;-61
2022/04/11 09:47:36;;;;;;;7.20;3.20;;;;;;;8.71;54.39;99385.11;233354;1217;138642;-60
2022/04/11 09:52:39;;;;;;;8.20;2.40;;;;;;;8.73;54.39;99385.16;233243;1217;138981;-58
2022/04/11 09:57:44;;;;;;;7.70;2.50;;;;;;;8.72;53.66;99387.36;233250;1218;138554;-60
2022/04/11 10:02:48;;;;;;;10.50;2.80;;;;;;;8.69;53.48;99388.90;233166;1217;138450;-60
2022/04/11 10:07:55;;;;;;;7.20;3.10;;;;;;;8.68;53.35;99396.55;233404;1217;141602;-61
2022/04/11 10:12:58;;;;;;;5.50;2.60;;;;;;;8.54;53.59;99417.08;233308;1217;138291;-60
2022/04/11 10:18:01;;;;;;;3.00;1.90;;;;;;;8.18;54.04;99432.66;233463;1217;138323;-57
2022/04/11 10:23:22;;;;;;;3.40;1.90;;;;;;;7.87;54.67;99419.96;233270;1217;138361;-59
2022/04/11 10:28:27;;;;;;;5.10;2.40;;;;;;;7.77;55.37;99416.69;233344;1217;138912;-60
2022/04/11 10:33:42;;;;;;;5.60;2.60;;;;;;;7.93;55.72;99408.89;233231;1217;138536;-60
2022/04/11 10:39:16;;;;;;;5.00;3.30;;;;;;;8.27;55.92;99405.20;233150;1219;138514;-60
2022/04/11 10:44:45;;;;;;;8.90;3.30;;;;;;;8.75;56.03;99397.46;233247;1217;138390;-60
2022/04/11 10:49:48;;;;;;;5.80;3.30;;;;;;;9.25;55.72;99391.79;233230;1217;138616;-59
2022/04/11 10:54:55;;;;;;;5.30;3.40;;;;;;;9.68;55.30;99387.45;233342;1217;138448;-60
2022/04/11 11:00:11;;;;;;;9.30;4.20;;;;;;;9.89;54.54;99382.77;233393;1217;138513;-58
2022/04/11 11:05:24;;;;;;;;;;;;;;;9.74;53.80;99386.78;233314;1217;138444;-60
2022/04/11 11:10:51;;;;;;;6.40;3.00;;;;;;;9.54;53.82;99384.84;233416;1217;125354;-61
2022/04/11 11:16:07;;;;;;;7.40;3.10;;;;;;;9.64;54.32;99375.22;233226;1218;138883;-60
2022/04/11 11:21:14;;;;;;;5.40;3.10;;;;;;;9.95;53.76;99373.61;233180;1218;138899;-57
2022/04/11 11:26:16;;;;;;;6.50;3.00;;;;;;;9.72;52.74;99385.45;233202;1217;138287;-59
2022/04/11 11:31:20;;;;;;;4.40;2.70;;;;;;;9.44;52.47;99396.34;233189;1217;138961;-58
2022/04/11 11:36:28;;;;;;;3.50;2.10;;;;;;;9.31;52.99;99400.17;233168;1217;138944;-59
2022/04/11 11:41:42;;;;;;;5.90;2.20;;;;;;;9.37;53.71;99399.48;233297;1219;139175;-58
2022/04/11 11:46:59;;;;;;;7.50;2.40;;;;;;;9.63;54.14;99388.02;233175;1217;138644;-60
2022/04/11 11:52:02;;;;;;;5.20;2.00;;;;;;;10.16;54.60;99379.20;233341;1217;139527;-58
2022/04/11 11:57:32;;;;;;;4.90;2.30;;;;;;;10.59;53.85;99367.91;233336;1217;139198;-59
2022/04/11 12:08:30;;;;;;;7.10;3.00;;;;;;;10.50;51.65;99363.86;232938;1217;138493;-59
2022/04/11 12:13:33;;;;;;;5.80;2.60;;;;;;;10.25;51.84;99371.07;233379;1217;139095;-58
2022/04/11 12:18:58;;;;;;;3.70;2.20;;;;;;;10.02;51.96;99390.40;233356;1217;138516;-59
2022/04/11 12:24:03;;;;;;;8.60;2.80;;;;;;;9.67;52.81;99362.67;233125;1217;138615;-60
2022/04/11 12:29:10;;;;;;;3.20;2.50;;;;;;;9.43;53.46;99363.23;233383;1217;138377;-59
2022/04/11 12:34:13;;;;;;;4.90;2.60;;;;;;;9.37;54.26;99354.88;233394;1217;138955;-60
2022/04/11 12:39:16;;;;;;;7.00;3.30;;;;;;;9.81;55.27;99346.52;233271;1217;138651;-60
2022/04/11 12:44:21;;;;;;;6.20;2.90;;;;;;;10.52;55.32;99338.86;233240;1219;138643;-61
2022/04/11 12:49:25;;;;;;;4.80;2.60;;;;;;;11.27;55.11;99333.61;233266;1217;138570;-61
2022/04/11 12:54:39;;;;;;;5.70;2.80;;;;;;;11.80;53.23;99331.08;233525;1216;139200;-60
2022/04/11 12:59:42;;;;;;;5.10;2.80;;;;;;;11.74;51.75;99328.26;233151;1220;138236;-60
2022/04/11 13:04:54;;;;;;;7.00;3.20;;;;;;;11.41;51.33;99337.75;233215;1217;139263;-59
2022/04/11 13:10:20;;;;;;;3.80;2.00;;;;;;;10.87;51.06;99364.90;233315;1217;139004;-60
2022/04/11 13:15:24;;;;;;;5.00;2.20;;;;;;;10.26;50.77;99377.58;233243;1217;140705;-61
2022/04/11 13:20:28;;;;;;;4.30;2.60;;;;;;;9.82;51.24;99367.73;233160;1217;139014;-61
2022/04/11 13:25:31;;;;;;;5.70;2.30;;;;;;;9.54;51.62;99362.48;233147;1217;138827;-60
2022/04/11 13:30:54;;;;;;;11.20;2.90;;;;;;;9.86;53.00;99353.33;233379;1217;138752;-61
2022/04/11 13:35:59;;;;;;;5.60;2.50;;;;;;;10.52;53.06;99350.07;233285;1217;138653;-60
2022/04/11 13:41:03;;;;;;;5.60;2.20;;;;;;;10.79;52.16;99334.36;233097;1219;139050;-60
2022/04/11 13:46:06;;;;;;;5.00;2.70;;;;;;;10.72;51.91;99336.86;233205;1217;138789;-60
2022/04/11 13:51:10;;;;;;;3.60;2.30;;;;;;;11.04;51.99;99338.38;233125;1217;138850;-61
2022/04/11 13:56:13;;;;;;;4.10;2.30;;;;;;;11.01;51.14;99332.64;233081;1219;139149;-60
2022/04/11 14:01:19;;;;;;;4.70;2.10;;;;;;;11.49;54.24;99327.82;233231;1217;138977;-61
2022/04/11 14:06:22;;;;;;;3.60;2.10;;;;;;;13.53;56.59;99316.28;233453;1217;138886;-60
2022/04/11 14:11:25;;;;;;;5.60;2.40;;;;;;;14.88;53.12;99315.70;233179;1217;138930;-58
2022/04/11 14:16:29;;;;;;;5.90;1.90;;;;;;;14.69;50.37;99311.59;233098;1220;139645;-58
2022/04/11 14:21:32;;;;;;;5.80;2.20;;;;;;;14.11;48.48;99324.89;233187;1217;138670;-60
2022/04/11 14:26:35;;;;;;;4.20;2.20;;;;;;;13.66;48.42;99327.01;233347;1217;138727;-59
2022/04/11 14:31:38;;;;;;;6.70;2.40;;;;;;;13.39;48.13;99325.65;233207;1217;138586;-61
2022/04/11 14:36:41;;;;;;;3.20;2.00;;;;;;;12.66;46.82;99321.63;233154;1217;138816;-60
2022/04/11 14:41:49;;;;;;;3.70;2.50;;;;;;;11.88;46.76;99319.23;233307;1217;139147;-59
2022/04/11 14:46:52;;;;;;;7.00;2.10;;;;;;;11.29;46.95;99311.45;233138;1217;139323;-60
2022/04/11 14:51:55;;;;;;;9.90;5.70;;;;;;;10.85;47.50;99303.80;233122;1217;139683;-61
2022/04/11 14:56:58;;;;;;;9.10;3.80;;;;;;;10.56;47.96;99297.70;233140;1217;138544;-62
2022/04/11 15:02:03;;;;;;;9.40;2.70;;;;;;;10.34;48.11;99299.46;233136;1217;139018;-61
2022/04/11 15:07:06;;;;;;;11.50;4.20;;;;;;;10.22;48.11;99292.67;233540;1217;138562;-62
2022/04/11 15:12:10;;;;;;;5.10;2.10;;;;;;;10.13;47.62;99286.45;233080;1217;140255;-60
2022/04/11 15:17:13;;;;;;;6.40;2.20;;;;;;;10.10;47.68;99279.89;233116;1217;139870;-61
2022/04/11 15:22:16;;;;;;;4.60;2.30;;;;;;;10.08;47.85;99279.80;233048;1217;138785;-60
2022/04/11 15:27:19;;;;;;;4.60;1.80;;;;;;;10.13;47.45;99281.67;233240;1217;139368;-60
2022/04/11 15:40:19;;;;;;;4.10;1.60;;;;;;;10.17;47.70;99294.21;232135;1216;138028;-61
2022/04/11 15:45:22;;;;;;;4.80;1.90;;;;;;;10.04;48.39;99301.67;233424;1217;138602;-62
2022/04/11 15:50:25;;;;;;;8.00;2.30;;;;;;;9.87;48.81;99300.86;233381;1217;139049;-61
2022/04/11 15:55:48;;;;;;;4.70;1.90;;;;;;;9.79;49.20;99306.97;233205;1218;140194;-62
2022/04/11 16:00:51;;;;;;;6.50;2.20;;;;;;;9.83;49.67;99307.97;233516;1217;138925;-62
2022/04/11 16:05:58;;;;;;;4.80;2.20;;;;;;;9.80;49.83;99298.55;233349;1217;138944;-60
2022/04/11 16:11:05;;;;;;;4.70;1.80;;;;;;;9.77;49.95;99291.48;233500;1217;138514;-62
2022/04/11 16:16:09;;;;;;;5.00;1.90;;;;;;;10.00;49.68;99292.83;233262;1217;139582;-62
2022/04/11 16:21:12;;;;;;;3.90;2.20;;;;;;;10.43;49.14;99290.79;233285;1217;138771;-59
2022/04/11 16:26:17;;;;;;;4.60;2.00;;;;;;;10.60;48.00;99289.66;233223;1217;139046;-61
2022/04/11 16:31:20;;;;;;;9.30;2.70;;;;;;;10.41;47.29;99282.39;233405;1217;139221;-59
2022/04/11 16:36:23;;;;;;;3.70;1.80;;;;;;;10.29;46.90;99282.41;233344;1217;140063;-62
2022/04/11 16:41:26;;;;;;;6.10;1.80;;;;;;;10.15;46.32;99279.95;233320;1217;138935;-60
2022/04/11 16:46:30;;;;;;;7.40;2.40;;;;;;;10.02;46.34;99281.02;233247;1217;138779;-62
2022/04/11 16:51:33;;;;;;;7.00;2.10;;;;;;;9.91;46.29;99291.73;233284;1217;138500;-62
2022/04/11 16:56:37;;;;;;;4.90;2.00;;;;;;;9.81;46.39;99302.59;233327;1217;138609;-61
2022/04/11 17:01:40;;;;;;;4.50;2.30;;;;;;;9.74;46.69;99305.24;233460;1217;138680;-61
2022/04/11 17:06:43;;;;;;;10.10;3.20;;;;;;;9.65;47.20;99308.20;233420;1215;138187;-61
2022/04/11 17:11:47;;;;;;;7.70;3.10;;;;;;;9.59;47.47;99310.52;233337;1217;138574;-60
2022/04/11 17:22:11;;;;;;;6.00;2.70;;;;;;;9.49;47.42;99313.16;233360;1217;139203;-58
2022/04/11 17:27:17;;;;;;;5.10;2.70;;;;;;;9.45;47.50;99316.56;233274;1217;140408;-62
2022/04/11 17:32:20;;;;;;;10.50;3.10;;;;;;;9.42;47.60;99326.43;233152;1217;139213;-60
2022/04/11 17:37:23;;;;;;;7.10;2.50;;;;;;;9.38;47.93;99324.52;233421;1214;138549;-61
2022/04/11 17:42:26;;;;;;;7.50;2.90;;;;;;;9.32;48.22;99324.85;233460;1217;139436;-60
2022/04/11 17:47:31;;;;;;;8.60;4.70;;;;;;;9.27;48.26;99334.13;233293;1217;139070;-61
2022/04/11 17:52:35;;;;;;;10.00;5.00;;;;;;;9.22;48.72;99342.19;233271;1215;139711;-60
2022/04/11 17:57:38;;;;;;;9.00;4.90;;;;;;;9.16;49.07;99341.23;233413;1217;138685;-60
2022/04/11 18:02:43;;;;;;;7.20;4.10;;;;;;;9.11;49.42;99336.23;233271;1217;138458;-59
2022/04/11 18:07:46;;;;;;;10.30;4.50;;;;;;;9.04;49.68;99337.64;233321;1217;138543;-61
2022/04/11 18:12:50;;;;;;;8.90;3.90;;;;;;;8.97;49.87;99340.98;233202;1217;139037;-60
2022/04/11 18:17:54;;;;;;;6.30;3.30;;;;;;;8.87;50.02;99349.14;233371;1217;137823;-60
2022/04/11 18:22:57;;;;;;;12.90;4.30;;;;;;;8.82;50.17;99358.73;233227;1217;138475;-61
2022/04/11 18:31:31;;;;;;;324.40;241.10;;;;;;;8.83;50.39;99361.50;233342;1217;138625;-58
2022/04/11 18:33:24;;;;;;;23.70;12.90;;;;;;;9.00;50.94;99367.20;233326;1217;139192;-59
2022/04/11 18:38:27;;;;;;;11.00;5.40;;;;;;;9.05;50.61;99365.90;233370;1216;139014;-61
2022/04/11 18:43:31;;;;;;;10.40;4.80;;;;;;;8.97;50.56;99376.58;233517;1217;138771;-61
2022/04/11 18:48:37;;;;;;;8.60;4.70;;;;;;;8.86;50.48;99376.93;233303;1217;138679;-61
2022/04/11 18:53:41;;;;;;;11.90;4.20;;;;;;;8.79;50.85;99380.64;233421;1217;138610;-62
2022/04/11 18:58:44;;;;;;;7.20;3.50;;;;;;;8.77;50.89;99382.52;233509;1215;138492;-60
2022/04/11 19:03:50;;;;;;;6.60;3.70;;;;;;;8.78;50.63;99383.36;233451;1217;138719;-61
2022/04/11 19:08:53;;;;;;;;;;;;;;;8.76;50.60;99387.15;233531;1215;139323;-62
2022/04/11 19:13:56;;;;;;;11.00;4.30;;;;;;;8.69;50.66;99390.52;233517;1217;124364;-62
2022/04/11 19:19:01;;;;;;;9.10;5.20;;;;;;;8.64;50.91;99393.77;233428;1216;139111;-62
2022/04/11 19:24:05;;;;;;;12.30;5.70;;;;;;;8.56;50.89;99399.27;233412;1217;138850;-62
2022/04/11 19:29:08;;;;;;;13.90;7.50;;;;;;;8.52;51.22;99404.08;233379;1217;139092;-62
2022/04/11 19:34:11;;;;;;;15.80;9.20;;;;;;;8.47;51.20;99407.48;233292;1217;139214;-61
2022/04/11 19:39:15;;;;;;;351.40;267.70;;;;;;;8.46;51.83;99405.96;233502;1217;138908;-63
2022/04/11 19:44:18;;;;;;;20.60;11.60;;;;;;;8.47;51.91;99407.45;233548;1217;139863;-62
2022/04/11 19:54:43;;;;;;;20.00;10.20;;;;;;;8.43;51.99;99395.64;233441;1217;138934;-60
2022/04/11 19:59:48;;;;;;;17.40;9.60;;;;;;;8.38;52.23;99393.60;233465;1217;141338;-64
2022/04/11 20:04:51;;;;;;;15.60;9.00;;;;;;;8.35;52.35;99393.70;233432;1217;139054;-62
2022/04/11 20:09:55;;;;;;;16.80;9.20;;;;;;;8.32;52.44;99393.66;233419;1217;139603;-63
2022/04/11 20:14:58;;;;;;;17.20;9.40;;;;;;;8.30;52.68;99395.33;233369;1217;139093;-63
2022/04/11 20:20:01;;;;;;;15.90;10.00;;;;;;;8.29;52.81;99396.46;233668;1217;138203;-65
2022/04/11 20:25:06;;;;;;;17.80;9.60;;;;;;;8.27;52.92;99395.14;233344;1217;139522;-65
2022/04/11 20:30:10;;;;;;;15.90;9.10;;;;;;;8.25;53.09;99400.52;233311;1218;138945;-62
2022/04/11 20:35:15;;;;;;;15.70;8.70;;;;;;;8.25;53.03;99403.17;233303;1217;138529;-61
2022/04/11 20:40:19;;;;;;;17.40;8.20;;;;;;;8.24;52.98;99405.52;233370;1215;138451;-61
2022/04/11 20:45:25;;;;;;;15.90;8.90;;;;;;;8.23;53.24;99403.62;233485;1215;138709;-60
2022/04/11 20:50:28;;;;;;;17.80;10.80;;;;;;;8.19;53.27;99405.22;233473;1217;138931;-60
2022/04/11 20:55:40;;;;;;;24.30;10.70;;;;;;;8.15;53.61;99401.73;233603;1217;138788;-61
2022/04/11 21:00:44;;;;;;;20.30;11.80;;;;;;;8.09;53.84;99395.95;233430;1217;139371;-60
2022/04/11 21:05:48;;;;;;;19.50;11.40;;;;;;;8.04;53.98;99398.34;233358;1217;139157;-61
2022/04/11 21:10:51;;;;;;;21.80;11.60;;;;;;;7.99;54.23;99393.45;233597;1217;138861;-61
2022/04/11 21:15:55;;;;;;;18.90;11.30;;;;;;;7.98;54.33;99395.42;233444;1217;138836;-60
2022/04/11 21:20:58;;;;;;;21.30;11.10;;;;;;;7.94;54.39;99398.42;233318;1217;139315;-59
2022/04/11 21:26:01;;;;;;;17.10;10.70;;;;;;;7.89;54.54;99400.59;233548;1217;138462;-62
2022/04/11 21:31:04;;;;;;;20.20;11.50;;;;;;;7.81;54.74;99401.30;233381;1217;139030;-64
2022/04/11 21:36:08;;;;;;;24.30;11.50;;;;;;;7.79;54.95;99405.26;233475;1217;139332;-61
2022/04/11 21:41:11;;;;;;;20.00;10.90;;;;;;;7.75;55.02;99404.20;233279;1218;138300;-65
2022/04/11 21:46:15;;;;;;;20.90;11.10;;;;;;;7.72;55.18;99398.69;233306;1217;140488;-61
2022/04/11 21:51:19;;;;;;;26.90;11.40;;;;;;;7.70;55.53;99393.49;233371;1217;139012;-61
2022/04/11 21:56:22;;;;;;;21.30;11.10;;;;;;;7.67;55.37;99388.69;233578;1217;138612;-61
2022/04/11 22:01:26;;;;;;;24.50;12.00;;;;;;;7.61;55.34;99386.46;233511;1217;138614;-62
2022/04/11 22:06:29;;;;;;;25.10;11.30;;;;;;;7.54;55.62;99385.92;233368;1217;140314;-62
2022/04/11 22:11:32;;;;;;;26.70;11.70;;;;;;;7.46;55.88;99383.11;233501;1217;138466;-63
2022/04/11 22:16:35;;;;;;;18.60;11.60;;;;;;;7.35;55.59;99383.55;233545;1217;138589;-64
2022/04/11 22:21:38;;;;;;;21.20;12.20;;;;;;;7.26;55.58;99384.84;233442;1217;138685;-64
2022/04/11 22:26:42;;;;;;;24.20;12.20;;;;;;;7.19;55.78;99384.77;233451;1217;139189;-62
2022/04/11 22:31:45;;;;;;;23.50;13.20;;;;;;;7.09;56.08;99386.61;233446;1217;139478;-62
2022/04/11 22:36:48;;;;;;;22.20;13.60;;;;;;;7.01;56.34;99389.23;232741;1217;138383;-58
2022/04/11 22:41:51;;;;;;;22.00;13.40;;;;;;;6.92;56.50;99397.02;233386;1217;138528;-60
2022/04/11 22:46:54;;;;;;;25.40;13.80;;;;;;;6.85;56.91;99396.95;233327;1217;138423;-59
2022/04/11 22:51:58;;;;;;;23.00;13.90;;;;;;;6.81;57.05;99398.02;233151;1218;138807;-60
2022/04/11 22:57:01;;;;;;;39.50;21.30;;;;;;;6.77;57.05;99399.08;233231;1218;138982;-60
2022/04/11 23:02:05;;;;;;;41.20;22.30;;;;;;;6.74;57.69;99396.55;233447;1217;138733;-61
2022/04/11 23:07:08;;;;;;;39.00;21.80;;;;;;;6.73;57.62;99391.45;233425;1217;138777;-62
2022/04/11 23:12:12;;;;;;;37.50;21.30;;;;;;;6.72;58.00;99396.80;233462;1215;138395;-61
2022/04/11 23:17:16;;;;;;;37.10;20.40;;;;;;;6.69;58.01;99393.91;233448;1217;140861;-60
2022/04/11 23:22:19;;;;;;;35.10;20.00;;;;;;;6.72;58.27;99387.45;233246;1218;138860;-63
2022/04/11 23:27:22;;;;;;;34.00;19.20;;;;;;;6.76;58.20;99392.77;233261;1219;138936;-62
2022/04/11 23:32:25;;;;;;;36.50;20.00;;;;;;;6.81;58.37;99393.44;233262;1219;139541;-61
2022/04/11 23:37:28;;;;;;;37.60;19.90;;;;;;;6.83;58.10;99388.58;233396;1217;139631;-61
2022/04/11 23:42:31;;;;;;;35.80;20.50;;;;;;;6.83;58.33;99386.10;233153;1217;139153;-62
2022/04/11 23:47:34;;;;;;;30.60;19.60;;;;;;;6.91;58.75;99385.09;233311;1217;138958;-61